sensor_id;sensor_type;location;lat;lon;timestamp;temperature;humidity
23568;DHT22;11962;50.838;4.430;2023-08-24T00:00:53;22.60;99.60
23568;DHT22;11962;50.838;4.430;2023-08-24T00:03:19;22.60;99.80
23568;DHT22;11962;50.838;4.430;2023-08-24T00:05:47;22.60;99.90
23568;DHT22;11962;50.838;4.430;2023-08-24T00:08:13;22.50;99.90
23568;DHT22;11962;50.838;4.430;2023-08-24T00:10:39;22.50;99.90
23568;DHT22;11962;50.838;4.430;2023-08-24T00:13:05;22.50;99.90
23568;DHT22;11962;50.838;4.430;2023-08-24T00:15:30;22.40;99.90
23568;DHT22;11962;50.838;4.430;2023-08-24T00:17:56;22.40;99.90
23568;DHT22;11962;50.838;4.430;2023-08-24T00:20:22;22.40;99.90
23568;DHT22;11962;50.838;4.430;2023-08-24T00:22:48;22.40;99.90
23568;DHT22;11962;50.838;4.430;2023-08-24T00:25:14;22.30;99.90
23568;DHT22;11962;50.838;4.430;2023-08-24T00:27:40;22.40;99.90
23568;DHT22;11962;50.838;4.430;2023-08-24T00:30:07;22.40;99.90
23568;DHT22;11962;50.838;4.430;2023-08-24T00:32:34;22.40;99.90
23568;DHT22;11962;50.838;4.430;2023-08-24T00:35:04;22.40;99.90
23568;DHT22;11962;50.838;4.430;2023-08-24T00:37:34;22.40;99.90
23568;DHT22;11962;50.838;4.430;2023-08-24T00:40:04;22.40;99.90
23568;DHT22;11962;50.838;4.430;2023-08-24T00:42:40;22.40;99.90
23568;DHT22;11962;50.838;4.430;2023-08-24T00:45:07;22.40;99.90
23568;DHT22;11962;50.838;4.430;2023-08-24T00:47:34;22.40;99.90
23568;DHT22;11962;50.838;4.430;2023-08-24T00:50:00;22.30;99.90
23568;DHT22;11962;50.838;4.430;2023-08-24T00:52:29;22.30;99.90
23568;DHT22;11962;50.838;4.430;2023-08-24T00:54:57;22.40;99.90
23568;DHT22;11962;50.838;4.430;2023-08-24T00:57:23;22.30;99.90
23568;DHT22;11962;50.838;4.430;2023-08-24T00:59:49;22.40;99.90
23568;DHT22;11962;50.838;4.430;2023-08-24T01:02:15;22.30;99.90
23568;DHT22;11962;50.838;4.430;2023-08-24T01:04:43;22.40;99.90
23568;DHT22;11962;50.838;4.430;2023-08-24T01:07:10;22.40;99.90
23568;DHT22;11962;50.838;4.430;2023-08-24T01:09:36;22.40;99.90
23568;DHT22;11962;50.838;4.430;2023-08-24T01:12:29;22.40;99.90
23568;DHT22;11962;50.838;4.430;2023-08-24T01:15:01;22.50;99.90
23568;DHT22;11962;50.838;4.430;2023-08-24T01:17:30;22.50;99.90
23568;DHT22;11962;50.838;4.430;2023-08-24T01:19:58;22.50;99.90
23568;DHT22;11962;50.838;4.430;2023-08-24T01:25:24;22.50;99.90
23568;DHT22;11962;50.838;4.430;2023-08-24T01:27:55;22.50;99.90
23568;DHT22;11962;50.838;4.430;2023-08-24T01:30:21;22.50;99.90
23568;DHT22;11962;50.838;4.430;2023-08-24T01:32:47;22.50;99.90
23568;DHT22;11962;50.838;4.430;2023-08-24T01:35:12;22.50;99.90
23568;DHT22;11962;50.838;4.430;2023-08-24T01:37:38;22.50;99.90
23568;DHT22;11962;50.838;4.430;2023-08-24T01:42:59;22.50;99.90
23568;DHT22;11962;50.838;4.430;2023-08-24T01:45:29;22.50;99.90
23568;DHT22;11962;50.838;4.430;2023-08-24T01:47:57;22.60;99.90
23568;DHT22;11962;50.838;4.430;2023-08-24T01:50:23;22.60;99.90
23568;DHT22;11962;50.838;4.430;2023-08-24T01:52:50;22.60;99.90
23568;DHT22;11962;50.838;4.430;2023-08-24T01:55:19;22.60;99.90
23568;DHT22;11962;50.838;4.430;2023-08-24T01:57:45;22.60;99.90
23568;DHT22;11962;50.838;4.430;2023-08-24T02:00:12;22.50;99.90
23568;DHT22;11962;50.838;4.430;2023-08-24T02:02:37;22.50;99.90
23568;DHT22;11962;50.838;4.430;2023-08-24T02:05:03;22.50;99.90
23568;DHT22;11962;50.838;4.430;2023-08-24T02:07:29;22.50;99.90
23568;DHT22;11962;50.838;4.430;2023-08-24T02:09:55;22.50;99.90
23568;DHT22;11962;50.838;4.430;2023-08-24T02:12:21;22.50;99.90
23568;DHT22;11962;50.838;4.430;2023-08-24T02:14:47;22.40;99.90
23568;DHT22;11962;50.838;4.430;2023-08-24T02:17:13;22.30;99.90
23568;DHT22;11962;50.838;4.430;2023-08-24T02:19:40;22.30;99.90
23568;DHT22;11962;50.838;4.430;2023-08-24T02:22:07;22.30;99.90
23568;DHT22;11962;50.838;4.430;2023-08-24T02:24:33;22.30;99.90
23568;DHT22;11962;50.838;4.430;2023-08-24T02:26:59;22.30;99.90
23568;DHT22;11962;50.838;4.430;2023-08-24T02:29:25;22.20;99.90
23568;DHT22;11962;50.838;4.430;2023-08-24T02:31:50;22.00;99.90
23568;DHT22;11962;50.838;4.430;2023-08-24T02:34:17;21.90;99.90
23568;DHT22;11962;50.838;4.430;2023-08-24T02:36:43;21.90;99.90
23568;DHT22;11962;50.838;4.430;2023-08-24T02:39:09;21.90;99.90
23568;DHT22;11962;50.838;4.430;2023-08-24T02:41:35;21.90;99.90
23568;DHT22;11962;50.838;4.430;2023-08-24T02:44:02;21.90;99.90
23568;DHT22;11962;50.838;4.430;2023-08-24T02:46:27;21.90;99.90
23568;DHT22;11962;50.838;4.430;2023-08-24T02:48:53;21.80;99.90
23568;DHT22;11962;50.838;4.430;2023-08-24T02:51:21;21.80;99.90
23568;DHT22;11962;50.838;4.430;2023-08-24T02:53:47;21.80;99.90
23568;DHT22;11962;50.838;4.430;2023-08-24T02:56:13;21.80;99.90
23568;DHT22;11962;50.838;4.430;2023-08-24T02:58:38;21.70;99.90
23568;DHT22;11962;50.838;4.430;2023-08-24T03:01:05;21.70;99.90
23568;DHT22;11962;50.838;4.430;2023-08-24T03:03:38;21.70;99.90
23568;DHT22;11962;50.838;4.430;2023-08-24T03:06:06;21.70;99.90
23568;DHT22;11962;50.838;4.430;2023-08-24T03:08:33;21.70;99.90
23568;DHT22;11962;50.838;4.430;2023-08-24T03:11:00;21.70;99.90
23568;DHT22;11962;50.838;4.430;2023-08-24T03:13:27;21.70;99.90
23568;DHT22;11962;50.838;4.430;2023-08-24T03:15:53;21.70;99.90
23568;DHT22;11962;50.838;4.430;2023-08-24T03:18:19;21.60;99.90
23568;DHT22;11962;50.838;4.430;2023-08-24T03:20:47;21.70;99.90
23568;DHT22;11962;50.838;4.430;2023-08-24T03:23:12;21.70;99.90
23568;DHT22;11962;50.838;4.430;2023-08-24T03:25:40;21.70;99.90
23568;DHT22;11962;50.838;4.430;2023-08-24T03:28:07;21.60;99.90
23568;DHT22;11962;50.838;4.430;2023-08-24T03:30:37;21.60;99.90
23568;DHT22;11962;50.838;4.430;2023-08-24T03:33:04;21.50;99.90
23568;DHT22;11962;50.838;4.430;2023-08-24T03:35:33;21.50;99.90
23568;DHT22;11962;50.838;4.430;2023-08-24T03:37:59;21.40;99.90
23568;DHT22;11962;50.838;4.430;2023-08-24T03:40:25;21.40;99.90
23568;DHT22;11962;50.838;4.430;2023-08-24T03:42:51;21.40;99.90
23568;DHT22;11962;50.838;4.430;2023-08-24T03:45:18;21.30;99.90
23568;DHT22;11962;50.838;4.430;2023-08-24T03:47:44;21.40;99.90
23568;DHT22;11962;50.838;4.430;2023-08-24T03:50:09;21.30;99.90
23568;DHT22;11962;50.838;4.430;2023-08-24T03:52:35;21.30;99.90
23568;DHT22;11962;50.838;4.430;2023-08-24T03:55:01;21.30;99.90
23568;DHT22;11962;50.838;4.430;2023-08-24T03:57:27;21.30;99.90
23568;DHT22;11962;50.838;4.430;2023-08-24T03:59:53;21.30;99.90
23568;DHT22;11962;50.838;4.430;2023-08-24T04:02:19;21.30;99.90
23568;DHT22;11962;50.838;4.430;2023-08-24T04:04:46;21.20;99.90
23568;DHT22;11962;50.838;4.430;2023-08-24T04:07:11;21.20;99.90
23568;DHT22;11962;50.838;4.430;2023-08-24T04:09:37;21.20;99.90
23568;DHT22;11962;50.838;4.430;2023-08-24T04:12:03;21.20;99.90
23568;DHT22;11962;50.838;4.430;2023-08-24T04:14:29;21.10;99.90
23568;DHT22;11962;50.838;4.430;2023-08-24T04:16:54;21.10;99.90
23568;DHT22;11962;50.838;4.430;2023-08-24T04:19:21;21.10;99.90
23568;DHT22;11962;50.838;4.430;2023-08-24T04:21:47;21.10;99.90
23568;DHT22;11962;50.838;4.430;2023-08-24T04:24:13;21.00;99.90
23568;DHT22;11962;50.838;4.430;2023-08-24T04:26:38;21.00;99.90
23568;DHT22;11962;50.838;4.430;2023-08-24T04:29:04;21.00;99.90
23568;DHT22;11962;50.838;4.430;2023-08-24T04:31:30;21.00;99.90
23568;DHT22;11962;50.838;4.430;2023-08-24T04:33:55;20.90;99.90
23568;DHT22;11962;50.838;4.430;2023-08-24T04:36:21;20.90;99.90
23568;DHT22;11962;50.838;4.430;2023-08-24T04:38:47;20.90;99.90
23568;DHT22;11962;50.838;4.430;2023-08-24T04:41:12;20.90;99.90
23568;DHT22;11962;50.838;4.430;2023-08-24T04:43:38;20.80;99.90
23568;DHT22;11962;50.838;4.430;2023-08-24T04:46:04;20.90;99.90
23568;DHT22;11962;50.838;4.430;2023-08-24T04:48:30;20.80;99.90
23568;DHT22;11962;50.838;4.430;2023-08-24T04:51:02;20.80;99.90
23568;DHT22;11962;50.838;4.430;2023-08-24T04:53:29;20.80;99.90
23568;DHT22;11962;50.838;4.430;2023-08-24T04:55:54;20.80;99.90
23568;DHT22;11962;50.838;4.430;2023-08-24T04:58:21;20.70;99.90
23568;DHT22;11962;50.838;4.430;2023-08-24T05:00:46;20.80;99.90
23568;DHT22;11962;50.838;4.430;2023-08-24T05:03:14;20.80;99.90
23568;DHT22;11962;50.838;4.430;2023-08-24T05:05:40;20.70;99.90
23568;DHT22;11962;50.838;4.430;2023-08-24T05:08:06;20.80;99.90
23568;DHT22;11962;50.838;4.430;2023-08-24T05:10:34;20.80;99.90
23568;DHT22;11962;50.838;4.430;2023-08-24T05:13:00;20.80;99.90
23568;DHT22;11962;50.838;4.430;2023-08-24T05:15:27;20.80;99.90
23568;DHT22;11962;50.838;4.430;2023-08-24T05:17:52;20.80;99.90
23568;DHT22;11962;50.838;4.430;2023-08-24T05:20:28;20.90;99.90
23568;DHT22;11962;50.838;4.430;2023-08-24T05:22:54;21.00;99.90
23568;DHT22;11962;50.838;4.430;2023-08-24T05:25:21;21.00;99.90
23568;DHT22;11962;50.838;4.430;2023-08-24T05:27:47;21.10;99.90
23568;DHT22;11962;50.838;4.430;2023-08-24T05:30:13;21.10;99.90
23568;DHT22;11962;50.838;4.430;2023-08-24T05:32:38;21.20;99.90
23568;DHT22;11962;50.838;4.430;2023-08-24T05:35:08;21.30;99.90
23568;DHT22;11962;50.838;4.430;2023-08-24T05:37:34;21.50;99.90
23568;DHT22;11962;50.838;4.430;2023-08-24T05:40:00;21.70;99.90
23568;DHT22;11962;50.838;4.430;2023-08-24T05:42:27;21.80;99.90
23568;DHT22;11962;50.838;4.430;2023-08-24T05:44:53;22.00;99.90
23568;DHT22;11962;50.838;4.430;2023-08-24T05:47:19;22.20;99.90
23568;DHT22;11962;50.838;4.430;2023-08-24T05:49:44;22.30;99.90
23568;DHT22;11962;50.838;4.430;2023-08-24T05:52:10;22.40;99.90
23568;DHT22;11962;50.838;4.430;2023-08-24T05:54:37;22.50;99.90
23568;DHT22;11962;50.838;4.430;2023-08-24T05:57:03;22.60;99.90
23568;DHT22;11962;50.838;4.430;2023-08-24T05:59:30;22.60;99.90
23568;DHT22;11962;50.838;4.430;2023-08-24T06:01:56;22.80;99.90
23568;DHT22;11962;50.838;4.430;2023-08-24T06:04:22;22.90;99.90
23568;DHT22;11962;50.838;4.430;2023-08-24T06:06:47;23.10;99.90
23568;DHT22;11962;50.838;4.430;2023-08-24T06:09:13;23.30;99.90
23568;DHT22;11962;50.838;4.430;2023-08-24T06:11:40;23.40;99.90
23568;DHT22;11962;50.838;4.430;2023-08-24T06:14:06;23.60;99.90
23568;DHT22;11962;50.838;4.430;2023-08-24T06:16:32;23.70;99.90
23568;DHT22;11962;50.838;4.430;2023-08-24T06:18:58;23.70;99.90
23568;DHT22;11962;50.838;4.430;2023-08-24T06:21:24;23.70;99.90
23568;DHT22;11962;50.838;4.430;2023-08-24T06:23:50;23.80;99.90
23568;DHT22;11962;50.838;4.430;2023-08-24T06:26:16;23.90;99.90
23568;DHT22;11962;50.838;4.430;2023-08-24T06:28:42;24.10;99.90
23568;DHT22;11962;50.838;4.430;2023-08-24T06:31:08;24.30;99.90
23568;DHT22;11962;50.838;4.430;2023-08-24T06:33:35;24.60;99.90
23568;DHT22;11962;50.838;4.430;2023-08-24T06:36:02;24.90;99.90
23568;DHT22;11962;50.838;4.430;2023-08-24T06:38:28;25.20;99.90
23568;DHT22;11962;50.838;4.430;2023-08-24T06:40:54;25.60;99.90
23568;DHT22;11962;50.838;4.430;2023-08-24T06:43:20;26.00;99.90
23568;DHT22;11962;50.838;4.430;2023-08-24T06:45:46;26.50;99.90
23568;DHT22;11962;50.838;4.430;2023-08-24T06:48:11;27.20;99.90
23568;DHT22;11962;50.838;4.430;2023-08-24T06:50:37;28.00;99.90
23568;DHT22;11962;50.838;4.430;2023-08-24T06:53:04;28.40;99.90
23568;DHT22;11962;50.838;4.430;2023-08-24T06:55:30;28.60;99.90
23568;DHT22;11962;50.838;4.430;2023-08-24T06:57:56;29.20;99.90
23568;DHT22;11962;50.838;4.430;2023-08-24T07:00:22;29.90;99.90
23568;DHT22;11962;50.838;4.430;2023-08-24T07:02:49;30.50;99.90
23568;DHT22;11962;50.838;4.430;2023-08-24T07:05:15;31.10;99.90
23568;DHT22;11962;50.838;4.430;2023-08-24T07:07:47;31.20;99.90
23568;DHT22;11962;50.838;4.430;2023-08-24T07:10:14;31.30;99.90
23568;DHT22;11962;50.838;4.430;2023-08-24T07:12:40;31.70;99.90
23568;DHT22;11962;50.838;4.430;2023-08-24T07:15:10;32.50;99.90
23568;DHT22;11962;50.838;4.430;2023-08-24T07:17:36;33.30;98.50
23568;DHT22;11962;50.838;4.430;2023-08-24T07:20:03;34.10;95.90
23568;DHT22;11962;50.838;4.430;2023-08-24T07:22:33;34.80;93.80
23568;DHT22;11962;50.838;4.430;2023-08-24T07:25:00;35.50;91.00
23568;DHT22;11962;50.838;4.430;2023-08-24T07:27:26;35.80;89.20
23568;DHT22;11962;50.838;4.430;2023-08-24T07:29:54;35.70;87.50
23568;DHT22;11962;50.838;4.430;2023-08-24T07:32:19;35.20;86.10
23568;DHT22;11962;50.838;4.430;2023-08-24T07:34:45;34.70;86.60
23568;DHT22;11962;50.838;4.430;2023-08-24T07:37:11;34.20;87.30
23568;DHT22;11962;50.838;4.430;2023-08-24T07:39:38;33.80;88.30
23568;DHT22;11962;50.838;4.430;2023-08-24T07:42:03;33.40;90.00
23568;DHT22;11962;50.838;4.430;2023-08-24T07:44:29;33.10;90.40
23568;DHT22;11962;50.838;4.430;2023-08-24T07:46:56;32.70;90.70
23568;DHT22;11962;50.838;4.430;2023-08-24T07:49:21;32.40;91.10
23568;DHT22;11962;50.838;4.430;2023-08-24T07:51:47;32.20;91.50
23568;DHT22;11962;50.838;4.430;2023-08-24T07:54:13;32.00;91.90
23568;DHT22;11962;50.838;4.430;2023-08-24T07:56:38;31.90;92.50
23568;DHT22;11962;50.838;4.430;2023-08-24T07:59:04;31.80;92.60
23568;DHT22;11962;50.838;4.430;2023-08-24T08:01:30;31.60;92.70
23568;DHT22;11962;50.838;4.430;2023-08-24T08:03:56;31.40;92.60
23568;DHT22;11962;50.838;4.430;2023-08-24T08:06:22;31.20;92.90
23568;DHT22;11962;50.838;4.430;2023-08-24T08:08:50;31.10;93.10
23568;DHT22;11962;50.838;4.430;2023-08-24T08:11:17;30.90;93.40
23568;DHT22;11962;50.838;4.430;2023-08-24T08:13:43;30.80;94.00
23568;DHT22;11962;50.838;4.430;2023-08-24T08:16:09;30.60;93.90
23568;DHT22;11962;50.838;4.430;2023-08-24T08:18:37;30.30;94.20
23568;DHT22;11962;50.838;4.430;2023-08-24T08:21:17;30.00;94.60
23568;DHT22;11962;50.838;4.430;2023-08-24T08:23:45;29.80;94.90
23568;DHT22;11962;50.838;4.430;2023-08-24T08:26:12;29.70;95.50
23568;DHT22;11962;50.838;4.430;2023-08-24T08:28:39;29.50;96.00
23568;DHT22;11962;50.838;4.430;2023-08-24T08:31:05;29.50;96.40
23568;DHT22;11962;50.838;4.430;2023-08-24T08:33:31;29.50;96.60
23568;DHT22;11962;50.838;4.430;2023-08-24T08:35:57;29.50;96.50
23568;DHT22;11962;50.838;4.430;2023-08-24T08:38:23;29.60;96.60
23568;DHT22;11962;50.838;4.430;2023-08-24T08:40:53;29.60;96.70
23568;DHT22;11962;50.838;4.430;2023-08-24T08:43:22;29.70;96.60
23568;DHT22;11962;50.838;4.430;2023-08-24T08:45:52;29.60;96.60
23568;DHT22;11962;50.838;4.430;2023-08-24T08:48:20;29.50;96.70
23568;DHT22;11962;50.838;4.430;2023-08-24T08:50:48;29.70;96.80
23568;DHT22;11962;50.838;4.430;2023-08-24T08:53:14;29.90;96.80
23568;DHT22;11962;50.838;4.430;2023-08-24T08:55:41;30.20;96.60
23568;DHT22;11962;50.838;4.430;2023-08-24T08:58:07;30.50;96.00
23568;DHT22;11962;50.838;4.430;2023-08-24T09:00:35;30.50;95.50
23568;DHT22;11962;50.838;4.430;2023-08-24T09:03:01;30.60;95.30
23568;DHT22;11962;50.838;4.430;2023-08-24T09:05:28;30.60;95.00
23568;DHT22;11962;50.838;4.430;2023-08-24T09:07:55;30.50;95.30
23568;DHT22;11962;50.838;4.430;2023-08-24T09:10:23;30.50;95.60
23568;DHT22;11962;50.838;4.430;2023-08-24T09:12:48;30.40;96.00
23568;DHT22;11962;50.838;4.430;2023-08-24T09:15:14;30.20;96.50
23568;DHT22;11962;50.838;4.430;2023-08-24T09:17:49;30.00;96.80
23568;DHT22;11962;50.838;4.430;2023-08-24T09:20:15;29.70;97.30
23568;DHT22;11962;50.838;4.430;2023-08-24T09:22:40;29.40;97.90
23568;DHT22;11962;50.838;4.430;2023-08-24T09:25:10;29.10;98.70
23568;DHT22;11962;50.838;4.430;2023-08-24T09:27:36;28.90;99.70
23568;DHT22;11962;50.838;4.430;2023-08-24T09:30:02;28.70;99.90
23568;DHT22;11962;50.838;4.430;2023-08-24T09:32:29;28.50;99.90
23568;DHT22;11962;50.838;4.430;2023-08-24T09:34:56;28.40;99.90
23568;DHT22;11962;50.838;4.430;2023-08-24T09:37:32;28.10;99.90
23568;DHT22;11962;50.838;4.430;2023-08-24T09:40:07;27.70;99.90
23568;DHT22;11962;50.838;4.430;2023-08-24T09:42:42;27.50;99.90
23568;DHT22;11962;50.838;4.430;2023-08-24T09:45:12;27.20;99.90
23568;DHT22;11962;50.838;4.430;2023-08-24T09:47:38;26.80;99.90
23568;DHT22;11962;50.838;4.430;2023-08-24T09:50:05;26.40;99.90
23568;DHT22;11962;50.838;4.430;2023-08-24T09:52:34;26.20;99.90
23568;DHT22;11962;50.838;4.430;2023-08-24T09:55:04;25.90;99.90
23568;DHT22;11962;50.838;4.430;2023-08-24T09:57:42;25.50;99.90
23568;DHT22;11962;50.838;4.430;2023-08-24T10:00:09;25.20;99.90
23568;DHT22;11962;50.838;4.430;2023-08-24T10:02:52;25.00;99.90
23568;DHT22;11962;50.838;4.430;2023-08-24T10:05:24;24.90;99.90
23568;DHT22;11962;50.838;4.430;2023-08-24T10:07:53;24.80;99.90
23568;DHT22;11962;50.838;4.430;2023-08-24T10:10:20;24.70;99.90
23568;DHT22;11962;50.838;4.430;2023-08-24T10:12:50;24.50;99.90
23568;DHT22;11962;50.838;4.430;2023-08-24T10:15:18;24.50;99.90
23568;DHT22;11962;50.838;4.430;2023-08-24T10:17:45;24.40;99.90
23568;DHT22;11962;50.838;4.430;2023-08-24T10:20:11;24.30;99.90
23568;DHT22;11962;50.838;4.430;2023-08-24T10:22:38;24.30;99.90
23568;DHT22;11962;50.838;4.430;2023-08-24T10:25:08;24.20;99.90
23568;DHT22;11962;50.838;4.430;2023-08-24T10:27:35;24.00;99.90
23568;DHT22;11962;50.838;4.430;2023-08-24T10:30:01;23.80;99.90
23568;DHT22;11962;50.838;4.430;2023-08-24T10:32:27;23.80;99.90
23568;DHT22;11962;50.838;4.430;2023-08-24T10:34:53;23.70;99.90
23568;DHT22;11962;50.838;4.430;2023-08-24T10:37:25;23.70;99.90
23568;DHT22;11962;50.838;4.430;2023-08-24T10:39:52;23.50;99.90
23568;DHT22;11962;50.838;4.430;2023-08-24T10:42:18;23.40;99.90
23568;DHT22;11962;50.838;4.430;2023-08-24T10:44:45;23.40;99.90
23568;DHT22;11962;50.838;4.430;2023-08-24T10:49:45;23.30;99.90
23568;DHT22;11962;50.838;4.430;2023-08-24T10:52:22;23.60;99.90
23568;DHT22;11962;50.838;4.430;2023-08-24T10:54:52;23.80;99.90
23568;DHT22;11962;50.838;4.430;2023-08-24T10:57:34;23.80;99.90
23568;DHT22;11962;50.838;4.430;2023-08-24T11:02:43;24.00;99.90
23568;DHT22;11962;50.838;4.430;2023-08-24T11:08:14;24.30;99.90
23568;DHT22;11962;50.838;4.430;2023-08-24T11:15:40;24.80;99.90
23568;DHT22;11962;50.838;4.430;2023-08-24T11:20:45;24.90;99.90
23568;DHT22;11962;50.838;4.430;2023-08-24T11:23:12;24.90;99.90
23568;DHT22;11962;50.838;4.430;2023-08-24T11:25:38;24.90;99.90
23568;DHT22;11962;50.838;4.430;2023-08-24T11:28:04;24.90;99.90
23568;DHT22;11962;50.838;4.430;2023-08-24T11:30:34;24.70;99.90
23568;DHT22;11962;50.838;4.430;2023-08-24T11:33:01;24.60;99.90
23568;DHT22;11962;50.838;4.430;2023-08-24T11:35:27;24.50;99.90
23568;DHT22;11962;50.838;4.430;2023-08-24T11:37:57;24.50;99.90
23568;DHT22;11962;50.838;4.430;2023-08-24T11:40:23;24.60;99.90
23568;DHT22;11962;50.838;4.430;2023-08-24T11:42:55;24.60;99.90
23568;DHT22;11962;50.838;4.430;2023-08-24T11:45:22;24.70;99.90
23568;DHT22;11962;50.838;4.430;2023-08-24T11:47:49;24.70;99.90
23568;DHT22;11962;50.838;4.430;2023-08-24T11:50:15;24.80;99.90
23568;DHT22;11962;50.838;4.430;2023-08-24T11:52:42;24.80;99.90
23568;DHT22;11962;50.838;4.430;2023-08-24T11:55:08;24.80;99.90
23568;DHT22;11962;50.838;4.430;2023-08-24T11:57:37;24.90;99.90
23568;DHT22;11962;50.838;4.430;2023-08-24T12:00:04;25.00;99.90
23568;DHT22;11962;50.838;4.430;2023-08-24T12:02:31;24.90;99.90
23568;DHT22;11962;50.838;4.430;2023-08-24T12:04:58;24.90;99.90
23568;DHT22;11962;50.838;4.430;2023-08-24T12:07:24;24.80;99.90
23568;DHT22;11962;50.838;4.430;2023-08-24T12:09:52;24.80;99.90
23568;DHT22;11962;50.838;4.430;2023-08-24T12:12:20;24.70;99.90
23568;DHT22;11962;50.838;4.430;2023-08-24T12:14:49;24.80;99.90
23568;DHT22;11962;50.838;4.430;2023-08-24T12:17:16;24.60;99.90
23568;DHT22;11962;50.838;4.430;2023-08-24T12:19:45;24.50;99.90
23568;DHT22;11962;50.838;4.430;2023-08-24T12:22:21;24.30;99.90
23568;DHT22;11962;50.838;4.430;2023-08-24T12:24:47;24.10;99.90
23568;DHT22;11962;50.838;4.430;2023-08-24T12:27:24;23.90;99.90
23568;DHT22;11962;50.838;4.430;2023-08-24T12:29:50;23.70;99.90
23568;DHT22;11962;50.838;4.430;2023-08-24T12:32:16;23.50;99.90
23568;DHT22;11962;50.838;4.430;2023-08-24T12:34:48;23.30;99.90
23568;DHT22;11962;50.838;4.430;2023-08-24T12:37:14;23.20;99.90
23568;DHT22;11962;50.838;4.430;2023-08-24T12:39:40;23.10;99.90
23568;DHT22;11962;50.838;4.430;2023-08-24T12:42:06;22.90;99.90
23568;DHT22;11962;50.838;4.430;2023-08-24T12:44:32;22.90;99.90
23568;DHT22;11962;50.838;4.430;2023-08-24T12:47:02;22.90;99.90
23568;DHT22;11962;50.838;4.430;2023-08-24T12:49:28;22.70;99.90
23568;DHT22;11962;50.838;4.430;2023-08-24T12:51:53;22.60;99.90
23568;DHT22;11962;50.838;4.430;2023-08-24T12:54:19;22.60;99.90
23568;DHT22;11962;50.838;4.430;2023-08-24T12:56:45;22.50;99.90
23568;DHT22;11962;50.838;4.430;2023-08-24T12:59:11;22.40;99.90
23568;DHT22;11962;50.838;4.430;2023-08-24T13:01:37;22.40;99.90
23568;DHT22;11962;50.838;4.430;2023-08-24T13:04:04;22.20;99.90
23568;DHT22;11962;50.838;4.430;2023-08-24T13:06:30;22.20;99.90
23568;DHT22;11962;50.838;4.430;2023-08-24T13:08:55;22.10;99.90
23568;DHT22;11962;50.838;4.430;2023-08-24T13:11:22;22.10;99.90
23568;DHT22;11962;50.838;4.430;2023-08-24T13:13:48;22.00;99.90
23568;DHT22;11962;50.838;4.430;2023-08-24T13:16:14;22.00;99.90
23568;DHT22;11962;50.838;4.430;2023-08-24T13:18:40;22.00;99.90
23568;DHT22;11962;50.838;4.430;2023-08-24T13:21:06;22.00;99.90
23568;DHT22;11962;50.838;4.430;2023-08-24T13:23:32;22.00;99.90
23568;DHT22;11962;50.838;4.430;2023-08-24T13:25:58;22.00;99.90
23568;DHT22;11962;50.838;4.430;2023-08-24T13:28:24;22.00;99.90
23568;DHT22;11962;50.838;4.430;2023-08-24T13:30:50;21.90;99.90
23568;DHT22;11962;50.838;4.430;2023-08-24T13:33:16;21.80;99.90
23568;DHT22;11962;50.838;4.430;2023-08-24T13:35:42;21.80;99.90
23568;DHT22;11962;50.838;4.430;2023-08-24T13:38:08;21.80;99.90
23568;DHT22;11962;50.838;4.430;2023-08-24T13:40:34;21.80;99.90
23568;DHT22;11962;50.838;4.430;2023-08-24T13:42:59;21.90;99.90
23568;DHT22;11962;50.838;4.430;2023-08-24T13:45:25;21.90;99.90
23568;DHT22;11962;50.838;4.430;2023-08-24T13:47:52;21.90;99.90
23568;DHT22;11962;50.838;4.430;2023-08-24T13:50:17;22.00;99.90
23568;DHT22;11962;50.838;4.430;2023-08-24T13:52:44;22.10;99.90
23568;DHT22;11962;50.838;4.430;2023-08-24T13:55:09;22.20;99.90
23568;DHT22;11962;50.838;4.430;2023-08-24T13:57:35;22.40;99.90
23568;DHT22;11962;50.838;4.430;2023-08-24T14:00:01;22.50;99.90
23568;DHT22;11962;50.838;4.430;2023-08-24T14:02:29;22.70;99.90
23568;DHT22;11962;50.838;4.430;2023-08-24T14:04:55;22.80;99.90
23568;DHT22;11962;50.838;4.430;2023-08-24T14:07:21;23.00;99.90
23568;DHT22;11962;50.838;4.430;2023-08-24T14:09:47;23.00;99.90
23568;DHT22;11962;50.838;4.430;2023-08-24T14:12:12;23.10;99.90
23568;DHT22;11962;50.838;4.430;2023-08-24T14:14:38;23.20;99.90
23568;DHT22;11962;50.838;4.430;2023-08-24T14:17:04;23.40;99.90
23568;DHT22;11962;50.838;4.430;2023-08-24T14:19:29;23.40;99.90
23568;DHT22;11962;50.838;4.430;2023-08-24T14:21:55;23.50;99.90
23568;DHT22;11962;50.838;4.430;2023-08-24T14:24:21;23.70;99.90
23568;DHT22;11962;50.838;4.430;2023-08-24T14:26:47;23.70;99.90
23568;DHT22;11962;50.838;4.430;2023-08-24T14:29:13;23.80;99.90
23568;DHT22;11962;50.838;4.430;2023-08-24T14:31:40;23.80;99.90
23568;DHT22;11962;50.838;4.430;2023-08-24T14:34:05;23.80;99.90
23568;DHT22;11962;50.838;4.430;2023-08-24T14:36:31;23.80;99.90
23568;DHT22;11962;50.838;4.430;2023-08-24T14:38:58;23.90;99.90
23568;DHT22;11962;50.838;4.430;2023-08-24T14:41:24;24.00;99.90
23568;DHT22;11962;50.838;4.430;2023-08-24T14:43:50;24.10;99.90
23568;DHT22;11962;50.838;4.430;2023-08-24T14:46:15;24.30;99.90
23568;DHT22;11962;50.838;4.430;2023-08-24T14:48:41;24.50;99.90
23568;DHT22;11962;50.838;4.430;2023-08-24T14:51:07;24.60;99.90
23568;DHT22;11962;50.838;4.430;2023-08-24T14:53:33;24.80;99.90
23568;DHT22;11962;50.838;4.430;2023-08-24T14:55:59;24.80;99.90
23568;DHT22;11962;50.838;4.430;2023-08-24T14:58:25;24.80;99.90
23568;DHT22;11962;50.838;4.430;2023-08-24T15:00:54;24.90;99.90
23568;DHT22;11962;50.838;4.430;2023-08-24T15:03:21;25.00;99.90
23568;DHT22;11962;50.838;4.430;2023-08-24T15:06:03;25.10;99.90
23568;DHT22;11962;50.838;4.430;2023-08-24T15:08:35;25.10;99.90
23568;DHT22;11962;50.838;4.430;2023-08-24T15:11:02;25.10;99.90
23568;DHT22;11962;50.838;4.430;2023-08-24T15:13:29;25.00;99.90
23568;DHT22;11962;50.838;4.430;2023-08-24T15:15:56;25.00;99.90
23568;DHT22;11962;50.838;4.430;2023-08-24T15:18:23;24.90;99.90
23568;DHT22;11962;50.838;4.430;2023-08-24T15:20:49;24.90;99.90
23568;DHT22;11962;50.838;4.430;2023-08-24T15:23:26;24.90;99.90
23568;DHT22;11962;50.838;4.430;2023-08-24T15:25:56;24.90;99.90
23568;DHT22;11962;50.838;4.430;2023-08-24T15:28:23;25.00;99.90
23568;DHT22;11962;50.838;4.430;2023-08-24T15:30:49;25.10;99.90
23568;DHT22;11962;50.838;4.430;2023-08-24T15:33:16;25.20;99.90
23568;DHT22;11962;50.838;4.430;2023-08-24T15:35:42;25.30;99.90
23568;DHT22;11962;50.838;4.430;2023-08-24T15:38:08;25.40;99.90
23568;DHT22;11962;50.838;4.430;2023-08-24T15:40:34;25.40;99.90
23568;DHT22;11962;50.838;4.430;2023-08-24T15:43:01;25.50;99.90
23568;DHT22;11962;50.838;4.430;2023-08-24T15:45:30;25.60;99.90
23568;DHT22;11962;50.838;4.430;2023-08-24T15:47:57;25.80;99.90
23568;DHT22;11962;50.838;4.430;2023-08-24T15:50:23;25.90;99.90